Skinner Lake, Indiana
Current Conditions -  °F | °C
As of 3:55 PM on Thursday 20 Nov 2014 (Local Time) from KGWB Reporting Station
Broken Clouds Broken Clouds  
Wind Chill: 16°   Ceiling: 4500
Heat Index: 28°   Visibility: 10mi
Dew Point: 10°   Wind: 18mph
Humidity: 47%   Direction: 260°W
Pressure: 30.03"   Gusts: 30mph
Location:  41.3469°N, 85.4059°W
Report Text: KGWB 202055Z AUTO 26016G26KT 10SM SCT036 BKN045 M02/M12 A3003 RMK AO2
Loading
Personal Weather Stations






























Interactive Weather Map New forecast layout! Learn more

10-Day Weather Forecast

Advertisements
Track Severe Weather on mobile